Time;durP1;ratioP1;P1;durP2;ratioP2;P2;SDS_P1;SDS_P2;PMS_P1;PMS_P2;Temp;Humidity;BMP_temperature;BMP_pressure;BME280_temperature;BME280_humidity;BME280_pressure;Samples;Min_cycle;Max_cycle;Signal;HPM_P1;HPM_P2
2022/10/09 00:00:18;;;;;;;8.55;7.20;;;;;;;;;;5031249;28;20026;-64
2022/10/09 00:02:44;;;;;;;9.40;7.55;;;;;;;;;;5021929;28;20033;-64
2022/10/09 00:05:09;;;;;;;9.02;7.25;;;;;;;;;;5023480;28;20025;-64
2022/10/09 00:07:35;;;;;;;10.27;7.72;;;;;;;;;;5015366;28;20068;-64
2022/10/09 00:10:00;;;;;;;10.30;7.53;;;;;;;;;;5011798;28;20034;-64
2022/10/09 00:12:26;;;;;;;8.70;7.45;;;;;;;;;;5025944;28;20033;-66
2022/10/09 00:14:51;;;;;;;9.30;7.40;;;;;;;;;;5031471;28;20123;-65
2022/10/09 00:17:16;;;;;;;10.18;7.25;;;;;;;;;;5031468;28;20033;-64
2022/10/09 00:19:42;;;;;;;10.48;7.75;;;;;;;;;;5027802;28;20424;-64
2022/10/09 00:22:07;;;;;;;9.93;7.68;;;;;;;;;;5027277;28;20052;-65
2022/10/09 00:24:36;;;;;;;10.65;7.40;;;;;;;;;;5030187;28;20029;-64
2022/10/09 00:27:01;;;;;;;10.88;7.75;;;;;;;;;;5027441;28;20025;-63
2022/10/09 00:29:26;;;;;;;9.38;7.47;;;;;;;;;;5028853;28;20501;-65
2022/10/09 00:31:52;;;;;;;10.02;7.82;;;;;;;;;;5029260;28;20044;-64
2022/10/09 00:34:17;;;;;;;10.52;8.02;;;;;;;;;;5030375;28;20044;-64
2022/10/09 00:36:43;;;;;;;11.15;7.57;;;;;;;;;;5036676;28;20075;-64
2022/10/09 00:39:08;;;;;;;9.18;6.90;;;;;;;;;;5051714;28;20071;-64
2022/10/09 00:41:34;;;;;;;9.25;7.47;;;;;;;;;;5055883;28;20074;-64
2022/10/09 00:44:40;;;;;;;10.18;7.72;;;;;;;;;;5055414;28;20102;-65
2022/10/09 00:47:18;;;;;;;8.73;6.97;;;;;;;;;;5054913;28;20374;-64
2022/10/09 00:49:44;;;;;;;11.43;8.15;;;;;;;;;;5055680;28;20029;-64
2022/10/09 00:52:10;;;;;;;9.38;7.47;;;;;;;;;;5055763;28;20524;-64
2022/10/09 00:54:38;;;;;;;10.48;7.47;;;;;;;;;;5055298;28;20056;-65
2022/10/09 00:57:04;;;;;;;10.05;7.65;;;;;;;;;;5054928;28;20033;-64
2022/10/09 00:59:30;;;;;;;9.93;7.80;;;;;;;;;;5054630;28;20025;-66
2022/10/09 01:01:56;;;;;;;9.45;7.85;;;;;;;;;;5055230;28;20033;-65
2022/10/09 01:04:21;;;;;;;9.40;7.93;;;;;;;;;;5055202;28;20021;-66
2022/10/09 01:07:15;;;;;;;9.68;7.40;;;;;;;;;;5055287;28;20111;-63
2022/10/09 01:09:46;;;;;;;9.48;7.53;;;;;;;;;;5054131;28;20029;-64
2022/10/09 01:12:35;;;;;;;9.25;6.97;;;;;;;;;;5054152;28;20103;-64
2022/10/09 01:15:16;;;;;;;9.65;7.60;;;;;;;;;;5054387;28;20551;-64
2022/10/09 01:17:50;;;;;;;9.25;6.60;;;;;;;;;;5055194;28;20033;-63
2022/10/09 01:20:41;;;;;;;9.57;6.90;;;;;;;;;;5055119;28;20029;-64
2022/10/09 01:23:41;;;;;;;10.40;7.30;;;;;;;;;;5053879;28;20033;-64
2022/10/09 01:26:15;;;;;;;8.18;6.90;;;;;;;;;;5053898;28;20036;-64
2022/10/09 01:28:52;;;;;;;8.23;6.75;;;;;;;;;;5053932;28;20041;-64
2022/10/09 01:31:20;;;;;;;9.63;7.32;;;;;;;;;;5054282;28;20140;-64
2022/10/09 01:33:46;;;;;;;9.82;7.15;;;;;;;;;;5054809;28;20114;-64
2022/10/09 01:36:14;;;;;;;11.05;7.20;;;;;;;;;;5045824;28;20112;-64
2022/10/09 01:38:41;;;;;;;10.48;7.70;;;;;;;;;;5033842;28;20140;-64
2022/10/09 01:41:07;;;;;;;8.70;7.18;;;;;;;;;;5033968;28;20030;-64
2022/10/09 01:43:33;;;;;;;13.07;7.82;;;;;;;;;;5033359;28;20394;-64
2022/10/09 01:46:32;;;;;;;11.30;7.75;;;;;;;;;;5033618;28;20050;-63
2022/10/09 01:49:19;;;;;;;11.80;7.80;;;;;;;;;;5021130;28;20076;-64
2022/10/09 01:52:06;;;;;;;9.88;6.95;;;;;;;;;;5033466;28;20025;-64
2022/10/09 01:55:07;;;;;;;9.52;7.30;;;;;;;;;;5033862;28;20532;-66
2022/10/09 01:57:39;;;;;;;7.78;6.93;;;;;;;;;;5033688;28;20034;-63
2022/10/09 02:00:08;;;;;;;9.05;7.43;;;;;;;;;;5033307;28;20534;-64
2022/10/09 02:02:34;;;;;;;10.20;7.33;;;;;;;;;;5033550;28;20108;-64
2022/10/09 02:05:00;;;;;;;10.95;7.55;;;;;;;;;;5033194;28;20675;-64
2022/10/09 02:07:28;;;;;;;8.75;7.47;;;;;;;;;;5053090;28;20449;-64
2022/10/09 02:09:54;;;;;;;10.15;7.47;;;;;;;;;;5054321;28;20052;-65
2022/10/09 02:12:23;;;;;;;9.07;7.65;;;;;;;;;;5053975;28;20028;-63
2022/10/09 02:14:48;;;;;;;11.20;7.55;;;;;;;;;;5054176;28;20049;-65
2022/10/09 02:17:20;;;;;;;9.80;7.53;;;;;;;;;;5053384;28;20436;-64
2022/10/09 02:20:05;;;;;;;10.93;7.82;;;;;;;;;;5053764;28;20618;-65
2022/10/09 02:22:32;;;;;;;10.80;7.25;;;;;;;;;;5053816;28;20078;-64
2022/10/09 02:25:00;;;;;;;9.32;7.53;;;;;;;;;;5053859;28;20035;-64
2022/10/09 02:27:26;;;;;;;10.90;7.47;;;;;;;;;;5053783;28;20070;-65
2022/10/09 02:29:52;;;;;;;9.55;7.45;;;;;;;;;;5053139;28;20481;-65
2022/10/09 02:32:18;;;;;;;10.90;8.23;;;;;;;;;;5053765;28;20440;-66
2022/10/09 02:34:43;;;;;;;12.68;8.05;;;;;;;;;;5053618;28;20056;-65
2022/10/09 02:37:09;;;;;;;11.13;8.25;;;;;;;;;;5053421;28;20484;-64
2022/10/09 02:39:35;;;;;;;10.55;8.18;;;;;;;;;;5052458;28;20025;-66
2022/10/09 02:42:01;;;;;;;10.63;8.23;;;;;;;;;;5052403;28;20020;-65
2022/10/09 02:44:26;;;;;;;10.27;7.68;;;;;;;;;;5052118;28;20053;-63
2022/10/09 02:46:52;;;;;;;9.20;7.80;;;;;;;;;;5052249;28;20040;-65
2022/10/09 02:49:17;;;;;;;10.38;8.70;;;;;;;;;;5053278;28;20480;-65
2022/10/09 02:51:43;;;;;;;11.43;8.57;;;;;;;;;;5053099;28;20025;-67
2022/10/09 02:54:09;;;;;;;10.25;7.80;;;;;;;;;;5053279;28;20056;-65
2022/10/09 02:56:35;;;;;;;9.95;8.10;;;;;;;;;;5053300;28;20102;-66
2022/10/09 02:59:00;;;;;;;10.40;8.25;;;;;;;;;;5052896;28;20412;-63
2022/10/09 03:01:26;;;;;;;11.82;8.63;;;;;;;;;;5051465;28;20031;-66
2022/10/09 03:03:52;;;;;;;10.13;8.52;;;;;;;;;;5051852;28;20461;-67
2022/10/09 03:06:20;;;;;;;10.15;8.45;;;;;;;;;;5034800;28;20026;-64
2022/10/09 03:08:48;;;;;;;9.35;8.00;;;;;;;;;;5032018;28;20041;-64
2022/10/09 03:11:15;;;;;;;10.25;7.50;;;;;;;;;;5031898;28;20544;-66
2022/10/09 03:13:42;;;;;;;10.32;8.15;;;;;;;;;;5031874;28;20040;-65
2022/10/09 03:16:10;;;;;;;10.10;7.80;;;;;;;;;;5032089;28;20034;-67
2022/10/09 03:18:36;;;;;;;10.80;7.90;;;;;;;;;;5031806;28;20541;-64
2022/10/09 03:21:06;;;;;;;9.18;8.15;;;;;;;;;;5031740;28;20528;-65
2022/10/09 03:23:32;;;;;;;11.32;8.13;;;;;;;;;;5031954;28;20061;-64
2022/10/09 03:26:03;;;;;;;12.80;8.30;;;;;;;;;;5032737;28;20064;-64
2022/10/09 03:28:29;;;;;;;10.75;8.13;;;;;;;;;;5031533;28;20033;-63
2022/10/09 03:30:55;;;;;;;10.95;8.40;;;;;;;;;;5031896;28;20032;-63
2022/10/09 03:33:21;;;;;;;11.25;8.35;;;;;;;;;;5031545;28;20025;-63
2022/10/09 03:35:48;;;;;;;12.27;8.95;;;;;;;;;;5045938;28;20025;-63
2022/10/09 03:38:14;;;;;;;11.63;9.13;;;;;;;;;;5051512;28;20075;-65
2022/10/09 03:40:40;;;;;;;10.77;8.73;;;;;;;;;;5052399;28;20025;-64
2022/10/09 03:43:06;;;;;;;13.93;8.10;;;;;;;;;;5052242;28;20044;-64
2022/10/09 03:45:32;;;;;;;11.88;8.57;;;;;;;;;;5052453;28;20024;-64
2022/10/09 03:47:57;;;;;;;10.70;8.90;;;;;;;;;;5051173;28;20017;-64
2022/10/09 03:50:23;;;;;;;10.88;8.88;;;;;;;;;;5051323;28;20029;-64
2022/10/09 03:52:48;;;;;;;10.55;8.25;;;;;;;;;;5051519;28;20059;-66
2022/10/09 03:55:14;;;;;;;12.20;8.23;;;;;;;;;;5051339;28;20020;-63
2022/10/09 03:57:39;;;;;;;9.10;7.85;;;;;;;;;;5052228;28;20349;-64
2022/10/09 04:00:06;;;;;;;10.18;8.10;;;;;;;;;;5052132;28;20052;-65
2022/10/09 04:02:32;;;;;;;10.65;8.85;;;;;;;;;;5052055;28;20037;-65
2022/10/09 04:04:58;;;;;;;10.68;8.35;;;;;;;;;;5052450;28;20032;-67
2022/10/09 04:07:23;;;;;;;10.98;7.82;;;;;;;;;;5051382;28;20021;-64
2022/10/09 04:09:49;;;;;;;13.60;9.20;;;;;;;;;;5050920;28;20029;-64
2022/10/09 04:12:14;;;;;;;10.90;8.80;;;;;;;;;;5051301;28;20029;-64
2022/10/09 04:14:40;;;;;;;10.55;8.70;;;;;;;;;;5055845;28;20017;-64
2022/10/09 04:17:06;;;;;;;10.75;8.48;;;;;;;;;;5055951;28;20036;-64
2022/10/09 04:19:31;;;;;;;10.48;8.25;;;;;;;;;;5056369;28;20032;-64
2022/10/09 04:21:57;;;;;;;11.00;9.15;;;;;;;;;;5055283;28;20029;-63
2022/10/09 04:24:22;;;;;;;10.18;8.30;;;;;;;;;;5054874;28;20025;-63
2022/10/09 04:26:48;;;;;;;10.90;8.50;;;;;;;;;;5054865;28;20036;-63
2022/10/09 04:29:13;;;;;;;11.02;8.50;;;;;;;;;;5054914;28;20044;-68
2022/10/09 04:31:38;;;;;;;9.30;8.10;;;;;;;;;;5055334;28;20032;-68
2022/10/09 04:34:04;;;;;;;11.45;8.25;;;;;;;;;;5048102;28;20030;-64
2022/10/09 04:36:29;;;;;;;9.00;8.00;;;;;;;;;;5035111;28;20021;-65
2022/10/09 04:38:55;;;;;;;10.15;8.38;;;;;;;;;;5034717;28;20071;-68
2022/10/09 04:41:20;;;;;;;9.90;8.48;;;;;;;;;;5034561;28;20100;-64
2022/10/09 04:43:46;;;;;;;12.20;9.23;;;;;;;;;;5034393;28;20049;-65
2022/10/09 04:46:13;;;;;;;10.77;8.45;;;;;;;;;;5034551;28;20534;-65
2022/10/09 04:48:43;;;;;;;10.90;8.85;;;;;;;;;;5034313;28;20495;-64
2022/10/09 04:51:09;;;;;;;10.95;8.65;;;;;;;;;;5034670;28;20029;-64
2022/10/09 04:53:36;;;;;;;10.82;8.63;;;;;;;;;;5034519;28;20351;-63
2022/10/09 04:56:05;;;;;;;11.80;8.68;;;;;;;;;;5034756;28;20021;-64
2022/10/09 04:58:31;;;;;;;9.07;7.77;;;;;;;;;;5034960;28;20030;-65
2022/10/09 05:00:56;;;;;;;10.35;8.70;;;;;;;;;;5034503;28;20060;-66
2022/10/09 05:03:22;;;;;;;11.35;8.75;;;;;;;;;;5036962;28;20029;-68
2022/10/09 05:05:47;;;;;;;11.90;8.38;;;;;;;;;;5055084;28;20052;-64
2022/10/09 05:08:13;;;;;;;11.63;8.93;;;;;;;;;;5055035;28;20032;-64
2022/10/09 05:10:38;;;;;;;12.07;8.60;;;;;;;;;;5055324;28;20029;-65
2022/10/09 05:13:04;;;;;;;11.07;8.43;;;;;;;;;;5054436;28;20420;-64
2022/10/09 05:15:30;;;;;;;10.02;8.52;;;;;;;;;;5054887;28;20519;-64
2022/10/09 05:17:56;;;;;;;11.45;8.77;;;;;;;;;;5055234;28;20112;-64
2022/10/09 05:20:21;;;;;;;10.13;8.93;;;;;;;;;;5054824;28;20028;-68
2022/10/09 05:22:47;;;;;;;10.82;8.40;;;;;;;;;;5054220;28;20029;-64
2022/10/09 05:25:13;;;;;;;10.85;8.30;;;;;;;;;;5052898;28;20350;-63
2022/10/09 05:27:38;;;;;;;12.40;8.07;;;;;;;;;;5053900;28;20040;-63
2022/10/09 05:30:05;;;;;;;11.05;8.63;;;;;;;;;;5054699;28;20469;-63
2022/10/09 05:32:31;;;;;;;10.48;8.48;;;;;;;;;;5054994;28;20021;-63
2022/10/09 05:34:56;;;;;;;10.65;7.75;;;;;;;;;;5054697;28;20469;-62
2022/10/09 05:37:22;;;;;;;10.20;8.45;;;;;;;;;;5054573;28;20055;-63
2022/10/09 05:39:47;;;;;;;11.05;8.70;;;;;;;;;;5053795;28;20075;-64
2022/10/09 05:42:12;;;;;;;10.52;8.48;;;;;;;;;;5053589;28;20619;-63
2022/10/09 05:44:38;;;;;;;10.07;8.27;;;;;;;;;;5054402;28;20036;-63
2022/10/09 05:47:03;;;;;;;13.40;9.10;;;;;;;;;;5054668;28;20396;-63
2022/10/09 05:49:29;;;;;;;10.20;8.40;;;;;;;;;;5054621;28;20698;-63
2022/10/09 05:51:54;;;;;;;9.32;8.30;;;;;;;;;;5054464;28;20461;-63
2022/10/09 05:54:20;;;;;;;9.25;8.13;;;;;;;;;;5053905;28;20449;-63
2022/10/09 05:56:46;;;;;;;11.80;8.13;;;;;;;;;;5053539;28;20552;-63
2022/10/09 05:59:14;;;;;;;10.00;8.25;;;;;;;;;;5053758;28;20021;-64
2022/10/09 06:01:43;;;;;;;11.05;8.32;;;;;;;;;;5054112;28;20372;-66
2022/10/09 06:04:14;;;;;;;10.82;7.93;;;;;;;;;;5037368;28;20030;-63
2022/10/09 06:06:40;;;;;;;10.32;8.15;;;;;;;;;;5033107;28;20048;-64
2022/10/09 06:09:07;;;;;;;9.85;8.07;;;;;;;;;;5033121;28;20065;-64
2022/10/09 06:11:35;;;;;;;11.52;7.80;;;;;;;;;;5033119;28;20017;-64
2022/10/09 06:14:04;;;;;;;9.35;7.97;;;;;;;;;;5032904;28;20022;-64
2022/10/09 06:16:32;;;;;;;12.05;8.68;;;;;;;;;;5033002;28;20017;-63
2022/10/09 06:18:58;;;;;;;10.85;8.35;;;;;;;;;;5033133;28;20026;-65
2022/10/09 06:21:25;;;;;;;11.25;8.35;;;;;;;;;;5033304;28;20075;-64
2022/10/09 06:23:52;;;;;;;9.32;8.23;;;;;;;;;;5033628;28;20104;-63
2022/10/09 06:26:20;;;;;;;9.60;7.85;;;;;;;;;;5032744;28;20558;-64
2022/10/09 06:28:47;;;;;;;8.93;7.70;;;;;;;;;;5032958;28;20037;-64
2022/10/09 06:31:15;;;;;;;9.90;7.95;;;;;;;;;;5032585;28;20017;-63
2022/10/09 06:33:42;;;;;;;9.40;7.97;;;;;;;;;;5045689;28;20152;-63
2022/10/09 06:36:10;;;;;;;10.30;8.38;;;;;;;;;;5053393;28;20029;-63
2022/10/09 06:38:36;;;;;;;12.25;8.15;;;;;;;;;;5053346;28;20556;-64
2022/10/09 06:41:11;;;;;;;9.50;7.65;;;;;;;;;;5053358;28;20029;-66
2022/10/09 06:43:38;;;;;;;9.88;7.70;;;;;;;;;;5052665;28;20055;-64
2022/10/09 06:46:05;;;;;;;10.18;7.93;;;;;;;;;;5053538;28;20033;-65
2022/10/09 06:48:32;;;;;;;10.60;7.68;;;;;;;;;;5053140;28;20029;-65
2022/10/09 06:51:02;;;;;;;9.30;7.95;;;;;;;;;;5053120;28;20056;-65
2022/10/09 06:53:28;;;;;;;9.85;7.90;;;;;;;;;;5053173;28;20021;-66
2022/10/09 06:55:56;;;;;;;10.07;7.55;;;;;;;;;;5052695;28;20523;-65
2022/10/09 06:58:21;;;;;;;11.73;7.95;;;;;;;;;;5053354;28;20028;-66
2022/10/09 07:00:47;;;;;;;9.68;7.65;;;;;;;;;;5053062;28;20043;-64
2022/10/09 07:03:13;;;;;;;10.70;8.18;;;;;;;;;;5052952;28;20447;-64
2022/10/09 07:05:39;;;;;;;10.90;8.10;;;;;;;;;;5052782;28;20493;-66
2022/10/09 07:08:05;;;;;;;8.95;7.65;;;;;;;;;;5053102;28;20060;-64
2022/10/09 07:10:30;;;;;;;9.50;7.97;;;;;;;;;;5052241;28;20025;-64
2022/10/09 07:12:56;;;;;;;8.95;8.00;;;;;;;;;;5052175;28;20033;-65
2022/10/09 07:15:21;;;;;;;10.00;7.70;;;;;;;;;;5051690;28;20465;-64
2022/10/09 07:17:46;;;;;;;10.15;8.40;;;;;;;;;;5053029;28;20029;-64
2022/10/09 07:20:12;;;;;;;9.68;8.27;;;;;;;;;;5052639;28;20029;-64
2022/10/09 07:22:37;;;;;;;11.00;7.95;;;;;;;;;;5052673;28;20051;-66
2022/10/09 07:25:03;;;;;;;9.43;7.30;;;;;;;;;;5052358;28;20037;-65
2022/10/09 07:27:29;;;;;;;9.90;8.50;;;;;;;;;;5052581;28;20029;-64
2022/10/09 07:29:54;;;;;;;8.25;7.43;;;;;;;;;;5052054;28;20029;-65
2022/10/09 07:32:20;;;;;;;10.70;7.97;;;;;;;;;;5042921;28;20025;-64
2022/10/09 07:34:45;;;;;;;10.95;8.35;;;;;;;;;;5031827;28;20036;-64
2022/10/09 07:37:11;;;;;;;10.77;8.23;;;;;;;;;;5031620;28;20412;-63
2022/10/09 07:39:36;;;;;;;9.07;8.07;;;;;;;;;;5031541;28;20029;-64
2022/10/09 07:42:03;;;;;;;9.68;8.32;;;;;;;;;;5032779;28;20025;-65
2022/10/09 07:44:28;;;;;;;9.48;8.15;;;;;;;;;;5033589;28;20053;-65
2022/10/09 07:46:54;;;;;;;10.57;7.97;;;;;;;;;;5033410;28;20024;-65
2022/10/09 07:49:19;;;;;;;9.35;8.20;;;;;;;;;;5033941;28;20022;-64
2022/10/09 07:51:45;;;;;;;11.85;8.65;;;;;;;;;;5034681;28;20024;-64
2022/10/09 07:54:11;;;;;;;11.45;8.50;;;;;;;;;;5034957;28;20017;-65
2022/10/09 07:56:39;;;;;;;10.68;8.02;;;;;;;;;;5034241;28;20028;-65
2022/10/09 07:59:07;;;;;;;10.10;8.48;;;;;;;;;;5033012;28;20104;-64
2022/10/09 08:01:34;;;;;;;9.38;8.05;;;;;;;;;;5028349;28;20026;-64
2022/10/09 08:04:01;;;;;;;10.02;8.20;;;;;;;;;;5014704;28;20610;-63
2022/10/09 08:06:27;;;;;;;10.50;7.82;;;;;;;;;;5036472;28;20432;-63
2022/10/09 08:08:54;;;;;;;9.48;8.23;;;;;;;;;;5038198;28;20031;-63
2022/10/09 08:11:21;;;;;;;8.98;8.02;;;;;;;;;;5037256;28;20075;-64
2022/10/09 08:13:48;;;;;;;10.13;8.10;;;;;;;;;;5040349;28;20025;-64
2022/10/09 08:16:14;;;;;;;9.93;7.43;;;;;;;;;;5040324;28;20528;-63
2022/10/09 08:18:39;;;;;;;9.88;8.32;;;;;;;;;;5040688;28;20120;-63
2022/10/09 08:21:11;;;;;;;8.65;7.75;;;;;;;;;;5036940;28;20429;-63
2022/10/09 08:23:37;;;;;;;8.38;7.47;;;;;;;;;;5034431;28;20489;-63
2022/10/09 08:26:03;;;;;;;9.10;7.70;;;;;;;;;;5036888;28;20104;-63
2022/10/09 08:28:29;;;;;;;8.35;7.55;;;;;;;;;;5041235;28;20424;-64
2022/10/09 08:30:54;;;;;;;9.18;7.50;;;;;;;;;;5034850;28;20108;-65
2022/10/09 08:33:22;;;;;;;10.95;8.15;;;;;;;;;;5030778;28;21055;-64
2022/10/09 08:35:52;;;;;;;8.52;7.63;;;;;;;;;;5029254;28;20030;-66
2022/10/09 08:38:18;;;;;;;10.27;7.60;;;;;;;;;;5026419;28;20033;-67
2022/10/09 08:40:48;;;;;;;8.27;7.30;;;;;;;;;;5031584;28;20570;-67
2022/10/09 08:43:16;;;;;;;;;;;;;;;;;;5032195;28;20037;-65
2022/10/09 08:45:44;;;;;;;9.57;7.93;;;;;;;;;;5031845;28;20434;-67
2022/10/09 08:48:21;;;;;;;8.80;7.53;;;;;;;;;;5031767;28;20469;-67
2022/10/09 08:50:50;;;;;;;10.00;7.63;;;;;;;;;;5032086;28;20030;-68
2022/10/09 08:53:37;;;;;;;10.88;7.95;;;;;;;;;;5026484;28;20033;-68
2022/10/09 08:56:07;;;;;;;10.43;7.95;;;;;;;;;;5026943;28;20086;-68
2022/10/09 08:58:36;;;;;;;8.73;7.78;;;;;;;;;;5030150;28;20129;-67
2022/10/09 09:01:30;;;;;;;10.48;8.15;;;;;;;;;;5031069;28;20013;-66
2022/10/09 09:04:07;;;;;;;12.00;7.30;;;;;;;;;;5034822;28;20021;-66
2022/10/09 09:06:54;;;;;;;9.43;7.60;;;;;;;;;;5035524;28;20036;-68
2022/10/09 09:09:22;;;;;;;9.10;7.90;;;;;;;;;;5035044;28;20579;-67
2022/10/09 09:12:22;;;;;;;8.50;7.25;;;;;;;;;;5032058;28;20535;-67
2022/10/09 09:15:19;;;;;;;7.88;7.00;;;;;;;;;;5003658;28;20072;-68
2022/10/09 09:17:54;;;;;;;11.90;7.88;;;;;;;;;;5015522;28;20034;-67
2022/10/09 09:20:42;;;;;;;8.38;7.50;;;;;;;;;;5019009;28;20048;-67
2022/10/09 09:23:14;;;;;;;9.38;7.22;;;;;;;;;;5035014;28;20037;-67
2022/10/09 09:25:41;;;;;;;9.50;7.70;;;;;;;;;;5032381;28;20049;-68
2022/10/09 09:28:32;;;;;;;9.07;7.30;;;;;;;;;;5032486;28;20036;-69
2022/10/09 09:31:21;;;;;;;7.47;6.78;;;;;;;;;;5028600;28;20070;-68
2022/10/09 09:34:07;;;;;;;9.00;7.85;;;;;;;;;;5030924;28;20126;-66
2022/10/09 09:36:50;;;;;;;8.38;6.82;;;;;;;;;;5035156;28;20362;-68
2022/10/09 09:39:16;;;;;;;9.35;7.38;;;;;;;;;;5034686;28;20109;-69
2022/10/09 09:41:43;;;;;;;11.70;7.35;;;;;;;;;;5034911;28;20025;-67
2022/10/09 09:44:13;;;;;;;9.20;7.10;;;;;;;;;;5034175;28;20490;-68
2022/10/09 09:46:40;;;;;;;8.07;6.97;;;;;;;;;;5034769;28;20053;-69
2022/10/09 09:49:20;;;;;;;7.57;6.78;;;;;;;;;;5030286;28;20037;-67
2022/10/09 09:51:48;;;;;;;7.28;6.53;;;;;;;;;;5014453;28;20042;-68
2022/10/09 09:54:22;;;;;;;8.48;7.07;;;;;;;;;;5028177;28;20487;-66
2022/10/09 09:56:52;;;;;;;8.75;6.75;;;;;;;;;;5034254;28;20036;-66
2022/10/09 09:59:42;;;;;;;8.98;7.18;;;;;;;;;;5034418;28;20112;-67
2022/10/09 10:02:20;;;;;;;7.93;7.03;;;;;;;;;;5017835;28;20109;-67
2022/10/09 10:04:49;;;;;;;8.07;7.28;;;;;;;;;;5014411;28;20080;-67
2022/10/09 10:07:32;;;;;;;7.43;6.70;;;;;;;;;;5014667;28;20038;-66
2022/10/09 10:10:15;;;;;;;9.27;7.57;;;;;;;;;;5015645;28;20386;-68
2022/10/09 10:12:44;;;;;;;8.73;7.03;;;;;;;;;;5014481;28;20429;-68
2022/10/09 10:15:25;;;;;;;7.82;7.00;;;;;;;;;;5014442;28;20026;-67
2022/10/09 10:18:06;;;;;;;8.27;6.72;;;;;;;;;;5014448;28;20038;-66
2022/10/09 10:20:44;;;;;;;8.05;7.25;;;;;;;;;;5012861;28;20072;-67
2022/10/09 10:23:41;;;;;;;7.90;7.03;;;;;;;;;;5013841;28;20018;-66
2022/10/09 10:26:30;;;;;;;7.72;6.93;;;;;;;;;;5013511;28;20052;-66
2022/10/09 10:29:23;;;;;;;7.22;6.53;;;;;;;;;;5013889;28;20080;-68
2022/10/09 10:32:16;;;;;;;8.13;7.22;;;;;;;;;;5013830;28;20057;-67
2022/10/09 10:34:50;;;;;;;7.55;6.70;;;;;;;;;;5014039;28;20028;-68
2022/10/09 10:37:26;;;;;;;7.50;6.75;;;;;;;;;;5013810;28;20026;-73
2022/10/09 10:40:02;;;;;;;9.60;7.05;;;;;;;;;;5013993;28;20057;-69
2022/10/09 10:42:41;;;;;;;7.13;6.43;;;;;;;;;;5013844;28;20469;-72
2022/10/09 10:45:18;;;;;;;9.10;6.97;;;;;;;;;;5013776;28;20081;-74
2022/10/09 10:47:49;;;;;;;7.55;6.85;;;;;;;;;;5013771;28;20038;-71
2022/10/09 10:50:16;;;;;;;7.90;7.15;;;;;;;;;;5014350;28;20029;-74
2022/10/09 10:53:09;;;;;;;6.80;6.18;;;;;;;;;;5014228;28;20501;-68
2022/10/09 10:55:50;;;;;;;8.90;6.85;;;;;;;;;;5045485;28;20043;-71
2022/10/09 10:58:24;;;;;;;7.95;7.13;;;;;;;;;;5013404;28;20030;-71
2022/10/09 11:01:09;;;;;;;7.53;6.53;;;;;;;;;;5013772;28;20029;-71
2022/10/09 11:04:12;;;;;;;7.95;6.68;;;;;;;;;;5013240;28;20037;-71
2022/10/09 11:06:47;;;;;;;7.65;6.95;;;;;;;;;;5013265;28;20026;-69
2022/10/09 11:09:46;;;;;;;8.77;7.15;;;;;;;;;;5013045;28;20117;-69
2022/10/09 11:12:35;;;;;;;7.45;6.50;;;;;;;;;;5012828;28;20547;-69
2022/10/09 11:15:20;;;;;;;7.40;6.70;;;;;;;;;;5013202;28;20044;-69
2022/10/09 11:18:06;;;;;;;8.63;7.35;;;;;;;;;;5013292;28;20439;-68
2022/10/09 11:20:31;;;;;;;7.43;6.72;;;;;;;;;;5029606;28;20061;-70
2022/10/09 11:23:20;;;;;;;8.00;6.93;;;;;;;;;;5029518;28;20432;-71
2022/10/09 11:25:49;;;;;;;7.60;6.80;;;;;;;;;;5039067;28;20029;-74
2022/10/09 11:28:31;;;;;;;7.75;6.95;;;;;;;;;;5052311;28;20031;-72
2022/10/09 11:31:12;;;;;;;7.45;6.68;;;;;;;;;;5042736;28;20043;-70
2022/10/09 11:33:44;;;;;;;7.47;6.65;;;;;;;;;;5042554;28;20071;-72
2022/10/09 11:36:23;;;;;;;8.05;7.25;;;;;;;;;;5041149;28;20096;-67
2022/10/09 11:38:57;;;;;;;7.47;6.72;;;;;;;;;;5040550;28;20036;-68
2022/10/09 11:41:23;;;;;;;7.70;6.90;;;;;;;;;;5051114;28;20461;-72
2022/10/09 11:44:16;;;;;;;7.22;6.53;;;;;;;;;;5052300;28;20055;-68
2022/10/09 11:47:04;;;;;;;8.32;6.88;;;;;;;;;;5052282;28;20107;-69
2022/10/09 11:50:06;;;;;;;7.38;6.68;;;;;;;;;;5052227;28;20545;-71
2022/10/09 11:52:49;;;;;;;7.68;6.88;;;;;;;;;;5052222;28;20112;-71
2022/10/09 11:55:24;;;;;;;7.50;6.78;;;;;;;;;;5052345;28;20035;-67
2022/10/09 11:57:50;;;;;;;7.05;6.35;;;;;;;;;;5050898;28;20028;-69
2022/10/09 12:00:27;;;;;;;6.90;6.20;;;;;;;;;;5052149;28;20033;-67
2022/10/09 12:03:00;;;;;;;7.47;6.78;;;;;;;;;;5052122;28;20492;-66
2022/10/09 12:05:46;;;;;;;7.10;6.40;;;;;;;;;;5052802;28;20594;-71
2022/10/09 12:08:24;;;;;;;7.97;6.80;;;;;;;;;;5052027;28;20591;-69
2022/10/09 12:10:57;;;;;;;7.60;6.90;;;;;;;;;;5052028;28;20025;-68
2022/10/09 12:13:37;;;;;;;7.97;7.18;;;;;;;;;;5051127;28;20095;-69
2022/10/09 12:16:05;;;;;;;7.82;7.00;;;;;;;;;;5052297;28;20021;-68
2022/10/09 12:18:35;;;;;;;7.53;6.72;;;;;;;;;;5050665;28;20025;-68
2022/10/09 12:21:07;;;;;;;7.30;6.60;;;;;;;;;;5050375;28;20079;-70
2022/10/09 12:23:36;;;;;;;7.38;6.63;;;;;;;;;;5051208;28;20028;-66
2022/10/09 12:26:03;;;;;;;9.25;6.95;;;;;;;;;;5050951;28;20029;-65
2022/10/09 12:28:38;;;;;;;7.22;6.53;;;;;;;;;;5051987;28;20021;-67
2022/10/09 12:31:14;;;;;;;7.30;6.60;;;;;;;;;;5051861;28;20108;-67
2022/10/09 12:33:48;;;;;;;7.25;6.55;;;;;;;;;;5052818;28;20369;-66
2022/10/09 12:36:26;;;;;;;7.55;6.85;;;;;;;;;;5056073;28;20025;-69
2022/10/09 12:38:51;;;;;;;7.57;6.88;;;;;;;;;;5055725;28;20025;-67
2022/10/09 12:41:35;;;;;;;7.85;7.00;;;;;;;;;;5055592;28;20070;-66
2022/10/09 12:44:03;;;;;;;7.80;7.05;;;;;;;;;;5054622;28;20509;-65
2022/10/09 12:46:38;;;;;;;8.75;6.80;;;;;;;;;;5055828;28;20021;-68
2022/10/09 12:49:15;;;;;;;8.68;6.72;;;;;;;;;;5055372;28;20029;-65
2022/10/09 12:51:40;;;;;;;8.93;7.22;;;;;;;;;;5055574;28;20031;-65
2022/10/09 12:54:08;;;;;;;7.50;6.80;;;;;;;;;;5055463;28;20028;-66
2022/10/09 12:56:37;;;;;;;7.47;6.78;;;;;;;;;;5055564;28;20029;-68
2022/10/09 12:59:04;;;;;;;7.30;6.60;;;;;;;;;;5055392;28;20025;-67
2022/10/09 13:01:32;;;;;;;7.45;6.65;;;;;;;;;;5055238;28;20462;-66
2022/10/09 13:03:57;;;;;;;7.45;6.75;;;;;;;;;;5055209;28;20029;-67
2022/10/09 13:06:27;;;;;;;7.80;7.00;;;;;;;;;;5055242;28;20032;-68
2022/10/09 13:08:56;;;;;;;7.53;6.68;;;;;;;;;;5055072;28;20572;-66
2022/10/09 13:11:40;;;;;;;7.38;6.60;;;;;;;;;;5055229;28;20017;-65
2022/10/09 13:14:22;;;;;;;7.88;6.90;;;;;;;;;;5055398;28;20427;-65
2022/10/09 13:16:47;;;;;;;8.05;6.80;;;;;;;;;;5054970;28;20059;-66
2022/10/09 13:19:27;;;;;;;7.57;6.88;;;;;;;;;;5054986;28;20044;-70
2022/10/09 13:22:17;;;;;;;7.75;7.05;;;;;;;;;;5055271;28;20025;-70
2022/10/09 13:24:42;;;;;;;;;;;;;;;;;;5055293;28;20037;-65
2022/10/09 13:27:10;;;;;;;9.00;6.68;;;;;;;;;;5054802;28;19958;-65
2022/10/09 13:29:35;;;;;;;8.23;6.63;;;;;;;;;;5055021;28;20028;-67
2022/10/09 13:32:02;;;;;;;9.63;6.45;;;;;;;;;;5054679;28;20017;-66
2022/10/09 13:34:27;;;;;;;7.10;6.40;;;;;;;;;;5054887;28;20120;-67
2022/10/09 13:36:54;;;;;;;8.02;7.22;;;;;;;;;;5054677;28;20561;-68
2022/10/09 13:39:20;;;;;;;7.13;6.43;;;;;;;;;;5054509;28;20079;-68
2022/10/09 13:41:49;;;;;;;8.68;6.65;;;;;;;;;;5054577;28;20052;-65
2022/10/09 13:44:14;;;;;;;8.73;6.53;;;;;;;;;;5054432;28;20527;-66
2022/10/09 13:46:39;;;;;;;7.13;6.43;;;;;;;;;;5053644;28;20029;-65
2022/10/09 13:49:05;;;;;;;7.28;6.57;;;;;;;;;;5054651;28;20083;-69
2022/10/09 13:51:31;;;;;;;6.68;5.90;;;;;;;;;;5054730;28;20021;-65
2022/10/09 13:53:57;;;;;;;7.90;7.07;;;;;;;;;;5054212;28;20528;-70
2022/10/09 13:56:22;;;;;;;7.43;6.22;;;;;;;;;;5054329;28;20108;-65
2022/10/09 13:58:48;;;;;;;7.15;6.45;;;;;;;;;;5054260;28;20014;-65
2022/10/09 14:01:14;;;;;;;6.95;6.32;;;;;;;;;;5054146;28;20033;-66
2022/10/09 14:03:39;;;;;;;6.88;6.18;;;;;;;;;;5054454;28;20029;-65
2022/10/09 14:06:05;;;;;;;7.35;6.65;;;;;;;;;;5054363;28;20485;-65
2022/10/09 14:08:31;;;;;;;7.03;6.07;;;;;;;;;;5053905;28;20366;-67
2022/10/09 14:10:59;;;;;;;7.00;6.30;;;;;;;;;;5054331;28;20039;-65
2022/10/09 14:13:25;;;;;;;9.00;6.38;;;;;;;;;;5054099;28;20028;-66
2022/10/09 14:15:52;;;;;;;7.13;6.43;;;;;;;;;;5053975;28;20097;-66
2022/10/09 14:18:18;;;;;;;6.78;6.10;;;;;;;;;;5053935;28;20503;-65
2022/10/09 14:20:43;;;;;;;6.47;5.97;;;;;;;;;;5053759;28;20366;-65
2022/10/09 14:23:10;;;;;;;6.32;5.72;;;;;;;;;;5053716;28;20021;-66
2022/10/09 14:25:35;;;;;;;7.00;6.30;;;;;;;;;;5052442;28;20020;-66
2022/10/09 14:28:01;;;;;;;6.43;5.82;;;;;;;;;;5053836;28;20354;-66
2022/10/09 14:30:26;;;;;;;6.72;6.13;;;;;;;;;;5054224;28;20033;-66
2022/10/09 14:32:52;;;;;;;6.95;6.25;;;;;;;;;;5053540;28;20103;-65
2022/10/09 14:35:17;;;;;;;6.60;6.00;;;;;;;;;;5053745;28;20021;-66
2022/10/09 14:37:43;;;;;;;7.22;6.53;;;;;;;;;;5053765;28;20025;-70
2022/10/09 14:40:10;;;;;;;6.60;6.00;;;;;;;;;;5053331;28;20053;-66
2022/10/09 14:42:36;;;;;;;7.68;6.13;;;;;;;;;;5053094;28;20077;-65
2022/10/09 14:45:03;;;;;;;6.85;6.22;;;;;;;;;;5053388;28;20075;-66
2022/10/09 14:47:29;;;;;;;6.80;6.20;;;;;;;;;;5053199;28;20108;-64
2022/10/09 14:49:54;;;;;;;7.07;6.38;;;;;;;;;;5053139;28;20036;-68
2022/10/09 14:52:20;;;;;;;7.05;6.35;;;;;;;;;;5053430;28;20025;-68
2022/10/09 14:54:46;;;;;;;7.63;6.75;;;;;;;;;;5053181;28;20113;-67
2022/10/09 14:57:13;;;;;;;8.20;6.57;;;;;;;;;;5052141;28;20024;-65